Terminal Aerodrome Forecast
Issued by NWS Grand Junction, CO

Home | Current Version | Previous Version | Text Only | Print | Product List | Glossary On
Versions: 1 2 3 4 5 6 7 8 9 10 11 12 13 14 15 16 17 18 19 20 21 22 23 24
000
FTUS45 KGJT 310520
TAFGJT
TAF
KGJT 310520Z 3106/0106 12010KT P6SM SCT150 BKN200
     FM311500 21010G15KT P6SM SCT120 BKN150
     FM311900 25015G25KT P6SM SCT120 SCT200
     FM010200 33004KT P6SM FEW120=

USA.gov is the U.S. government's official web portal to all federal, state and local government web resources and services.